Sadler, Texas
Current Conditions -  °F | °C
As of 1:15 AM on Saturday 29 Nov 2014 (Local Time) from KGYI Reporting Station
Clear Clear  
Wind Chill: 59°   Ceiling: Unl
Heat Index: 59°   Visibility: 10mi
Dew Point: 49°   Wind: 22mph
Humidity: 70%   Direction: 200°SSW
Pressure: 29.92"   Gusts: NA
Location:  33.68°N, 96.85°W
Report Text: KGYI 290715Z AUTO 20019KT 10SM CLR 15/10 A2992 RMK AO2 T01500095
Loading
Personal Weather Stations






























Interactive Weather Map New forecast layout! Learn more

10-Day Weather Forecast

Advertisements
Track Severe Weather on mobile